Terminal Aerodrome Forecast
Issued by NWS Dallas/Fort Worth, TX

Home | Current Version | Previous Version | Text Only | Print | Product List | Glossary On
Versions: 1 2 3 4 5 6 7 8 9 10 11 12 13 14 15 16 17 18 19 20 21 22 23 24 25 26 27 28 29 30 31 32 33 34
000
FTUS44 KFWD 201700
TAFDFW
TAF
KDFW 201720Z 2018/2124 15009KT P6SM BKN030
      TEMPO 2018/2020 FEW030 BKN050
     FM202000 16010KT P6SM SCT040
     FM210100 VRB03KT P6SM FEW080
     FM211600 06003KT P6SM SCT070
     FM211900 03006KT P6SM BKN070=

USA.gov is the U.S. government's official web portal to all federal, state and local government web resources and services.